Weerspreuk van de week. Komen de pluimen aan het riet, bedenk het is nazomer en geniet.
Het weer levert geen direct gevaar op.    Er zijn geen waarschuwingen afgegeven.

Onweer radar Meer informatie blitzortung!


Regen radar Meer informatie rain snow radar


Bekijk deze sites ook eens:

FPL Automotive (TIP)

Autostekkers.nl (TIP)

Over Luyksgestel

De Kempen, mijn omgeving

BOL.com

Weerstation Noordbergum

Inktweb

Weerstation Hapert

Weerstation Hoogeloon

Weerstation Son&Breugel

Weerstation Castaert

Smartphonehoesjes

Weerstation Tilburg Reeshof

Weerstation Scheulder

Weerverwachting Samos

Samos actueel

Weerwoord (forum)

Griekenlandforum

Vakantie naar Samos

Zomerzon

Canon

Wolven in Nederland



METAR rapporten vliegvelden

   
EBAW - Antwerp
Gewijzigd: 20-09-2019 22:20
Helder  
Helder  
   Wind: Oosten 11.1 km/h
Wind: Oosten 11.1 km/h
Temperatuur: 14°C
Dauwpunt: 5°C
Vochtigheid: 55%
Barometer: 1023 hPa
Zicht: meer dan 10 km
Bewolking: Helder
EBAW 202020Z 08006KT CAVOK 14/05 Q1023 NOSIG
EBLG - Liège
Gewijzigd: 20-09-2019 22:20
Helder  
Helder  
   Wind: ONO 11.1 km/h
Wind: ONO 11.1 km/h
Temperatuur: 15°C
Dauwpunt: 3°C
Vochtigheid: 45%
Barometer: 1023 hPa
Zicht: meer dan 10 km
Bewolking: Helder
EBLG 202020Z 07006KT CAVOK 15/03 Q1023 NOSIG
EBCV - Mons/Bergen
Gewijzigd: 20-09-2019 22:25
Helder  
Helder  
   Wind: Oosten 11.1 km/h
Wind: Oosten 11.1 km/h
Temperatuur: 14°C
Dauwpunt: 3°C
Vochtigheid: 48%
Barometer: 1022 hPa
Bewolking: Helder
Zicht: meer dan 10 km
Bewolking: Helder
EBCV 202025Z AUTO 08006KT 9999 NCD 14/03 Q1022 BLU
EHBK - Maastricht
Gewijzigd: 20-09-2019 22:25
Helder  
Helder  
   Wind: NO 11.1 km/h
Wind: NO 11.1 km/h
Temperatuur: 11°C
Dauwpunt: 5°C
Vochtigheid: 67%
Barometer: 1023 hPa
Bewolking: Helder
Zicht: meer dan 10 km
Bewolking: Helder
EHBK 202025Z AUTO 05006KT 9999 NCD 11/05 Q1023 NOSIG
ELLX - Luxemburg
Gewijzigd: 20-09-2019 22:20
Helder  
Helder  
   Wind: ONO 16.7 km/h
Wind: ONO 16.7 km/h
Temperatuur: 12°C
Dauwpunt: 1°C
Vochtigheid: 47%
Barometer: 1023 hPa
Zicht: meer dan 10 km
Bewolking: Helder
ELLX 202020Z 07009KT CAVOK 12/01 Q1023 NOSIG
EBOS - Oostende
Gewijzigd: 20-09-2019 22:20
Helder  
Helder  
   Wind: Oosten 20.4 km/h
Wind: Oosten 20.4 km/h
Temperatuur: 14°C
Dauwpunt: 3°C
Vochtigheid: 48%
Barometer: 1022 hPa
Zicht: meer dan 10 km
Bewolking: Helder
EBOS 202020Z 09011KT CAVOK 14/03 Q1022 NOSIG

Script ontwikkeld door  Saratoga-weather.org Aangepast voor de template door  Weerstation Leuven

U vindt ons ook hier:

Het Weer Aktueel

UK Metoffice

European Weather Network

Weather Underground

AWEKAS



Lekker winkelen zonder zorgen - Gratis verzending en retour